Time,TemperatureF,DewpointF,PressureIn,WindDirection,WindDirectionDegrees,WindSpeedMPH,WindSpeedGustMPH,Humidity,HourlyPrecipIn,Conditions,Clouds,dailyrainin,SoftwareType,DateUTC
2015-05-27 00:02:00,60.0,45.0,-100.00,SE,136,2.0,4.0,58,-99.99,,,-99.99,,2015-05-27 08:02:00,
2015-05-27 00:11:00,60.0,45.0,-100.00,SE,136,2.0,4.0,58,-99.99,,,-99.99,,2015-05-27 08:11:00,
2015-05-27 00:21:00,55.0,47.0,-100.00,ESE,110,2.0,5.0,74,-99.99,,,-99.99,,2015-05-27 08:21:00,
2015-05-27 00:43:00,55.0,47.0,-100.00,ESE,110,2.0,5.0,74,-99.99,,,-99.99,,2015-05-27 08:43:00,
2015-05-27 00:51:00,55.0,47.0,-100.00,ESE,110,2.0,5.0,74,-99.99,,,-99.99,,2015-05-27 08:51:00,
2015-05-27 01:01:00,55.0,47.0,-100.00,ESE,110,2.0,5.0,74,-99.99,,,-99.99,,2015-05-27 09:01:00,
2015-05-27 01:11:00,55.0,47.0,-100.00,ESE,110,2.0,5.0,74,-99.99,,,-99.99,,2015-05-27 09:11:00,
2015-05-27 01:21:00,49.0,46.0,-100.00,North,-9999,0.0,2.0,90,-99.99,,,-99.99,,2015-05-27 09:21:00,
2015-05-27 01:42:00,49.0,46.0,-100.00,North,-9999,0.0,2.0,90,-99.99,,,-99.99,,2015-05-27 09:42:00,
2015-05-27 01:52:00,49.0,46.0,-100.00,North,-9999,0.0,2.0,90,-99.99,,,-99.99,,2015-05-27 09:52:00,
2015-05-27 02:02:00,49.0,46.0,-100.00,North,-9999,0.0,2.0,90,-99.99,,,-99.99,,2015-05-27 10:02:00,
2015-05-27 02:11:00,49.0,46.0,-100.00,North,-9999,0.0,2.0,90,-99.99,,,-99.99,,2015-05-27 10:11:00,
2015-05-27 02:21:00,49.0,46.0,-100.00,SSE,164,3.0,4.0,88,-99.99,,,-99.99,,2015-05-27 10:21:00,
2015-05-27 02:42:00,49.0,46.0,-100.00,SSE,164,3.0,4.0,88,-99.99,,,-99.99,,2015-05-27 10:42:00,
2015-05-27 02:52:00,49.0,46.0,-100.00,SSE,164,3.0,4.0,88,-99.99,,,-99.99,,2015-05-27 10:52:00,
2015-05-27 03:02:00,49.0,46.0,-100.00,SSE,164,3.0,4.0,88,-99.99,,,-99.99,,2015-05-27 11:02:00,
2015-05-27 03:11:00,49.0,46.0,-100.00,SSE,164,3.0,4.0,88,-99.99,,,-99.99,,2015-05-27 11:11:00,
2015-05-27 05:21:00,47.0,45.0,-100.00,South,172,1.0,5.0,93,-99.99,,,-99.99,,2015-05-27 13:21:00,
2015-05-27 05:51:00,47.0,45.0,-100.00,South,172,1.0,5.0,93,-99.99,,,-99.99,,2015-05-27 13:51:00,
2015-05-27 06:01:00,47.0,45.0,-100.00,South,172,1.0,5.0,93,-99.99,,,-99.99,,2015-05-27 14:01:00,
2015-05-27 06:11:00,47.0,45.0,-100.00,South,172,1.0,5.0,93,-99.99,,,-99.99,,2015-05-27 14:11:00,
2015-05-27 06:21:00,47.0,42.0,-100.00,North,-9999,0.0,4.0,84,-99.99,,,-99.99,,2015-05-27 14:21:00,
2015-05-27 06:43:00,47.0,42.0,-100.00,North,-9999,0.0,4.0,84,-99.99,,,-99.99,,2015-05-27 14:43:00,
2015-05-27 06:52:00,47.0,42.0,-100.00,North,-9999,0.0,4.0,84,-99.99,,,-99.99,,2015-05-27 14:52:00,
2015-05-27 07:02:00,47.0,42.0,-100.00,North,-9999,0.0,4.0,84,-99.99,,,-99.99,,2015-05-27 15:02:00,
2015-05-27 07:11:00,47.0,42.0,-100.00,North,-9999,0.0,4.0,84,-99.99,,,-99.99,,2015-05-27 15:11:00,
2015-05-27 07:21:00,49.0,45.0,-100.00,WNW,288,2.0,4.0,86,-99.99,,,-99.99,,2015-05-27 15:21:00,
2015-05-27 07:42:00,49.0,45.0,-100.00,WNW,288,2.0,4.0,86,-99.99,,,-99.99,,2015-05-27 15:42:00,
2015-05-27 07:52:00,49.0,45.0,-100.00,WNW,288,2.0,4.0,86,-99.99,,,-99.99,,2015-05-27 15:52:00,
2015-05-27 08:02:00,49.0,45.0,-100.00,WNW,288,2.0,4.0,86,-99.99,,,-99.99,,2015-05-27 16:02:00,
2015-05-27 08:11:00,49.0,45.0,-100.00,WNW,288,2.0,4.0,86,-99.99,,,-99.99,,2015-05-27 16:11:00,
2015-05-27 08:43:00,55.0,46.0,-100.00,SSW,206,2.0,6.0,71,-99.99,,,-99.99,,2015-05-27 16:43:00,
2015-05-27 08:52:00,55.0,46.0,-100.00,SSW,206,2.0,6.0,71,-99.99,,,-99.99,,2015-05-27 16:52:00,